sensor_id;sensor_type;location;lat;lon;timestamp;P1;durP1;ratioP1;P2;durP2;ratioP2
49147;SDS011;41980;45.550;12.070;2022-11-12T00:06:04;15.98;;;12.85;;
49147;SDS011;41980;45.550;12.070;2022-11-12T00:12:16;17.10;;;13.40;;
49147;SDS011;41980;45.550;12.070;2022-11-12T00:18:21;18.48;;;14.20;;
49147;SDS011;41980;45.550;12.070;2022-11-12T00:24:27;15.20;;;12.90;;
49147;SDS011;41980;45.550;12.070;2022-11-12T00:30:32;16.13;;;13.57;;
49147;SDS011;41980;45.550;12.070;2022-11-12T00:36:44;14.35;;;10.45;;
49147;SDS011;41980;45.550;12.070;2022-11-12T00:42:50;14.82;;;12.95;;
49147;SDS011;41980;45.550;12.070;2022-11-12T00:48:56;14.70;;;11.70;;
49147;SDS011;41980;45.550;12.070;2022-11-12T00:55:01;15.20;;;12.00;;
49147;SDS011;41980;45.550;12.070;2022-11-12T01:01:08;16.88;;;13.85;;
49147;SDS011;41980;45.550;12.070;2022-11-12T01:07:15;19.52;;;15.43;;
49147;SDS011;41980;45.550;12.070;2022-11-12T01:13:20;15.80;;;12.75;;
49147;SDS011;41980;45.550;12.070;2022-11-12T01:19:25;16.60;;;13.32;;
49147;SDS011;41980;45.550;12.070;2022-11-12T01:25:30;16.52;;;12.65;;
49147;SDS011;41980;45.550;12.070;2022-11-12T01:31:37;18.70;;;15.20;;
49147;SDS011;41980;45.550;12.070;2022-11-12T01:37:42;20.27;;;14.00;;
49147;SDS011;41980;45.550;12.070;2022-11-12T01:43:47;14.13;;;11.43;;
49147;SDS011;41980;45.550;12.070;2022-11-12T01:56:24;14.80;;;11.32;;
49147;SDS011;41980;45.550;12.070;2022-11-12T02:02:32;13.65;;;10.85;;
49147;SDS011;41980;45.550;12.070;2022-11-12T02:08:39;11.07;;;9.20;;
49147;SDS011;41980;45.550;12.070;2022-11-12T02:14:45;16.95;;;13.02;;
49147;SDS011;41980;45.550;12.070;2022-11-12T02:20:52;15.73;;;12.60;;
49147;SDS011;41980;45.550;12.070;2022-11-12T02:26:59;18.60;;;14.43;;
49147;SDS011;41980;45.550;12.070;2022-11-12T02:33:05;18.77;;;16.63;;
49147;SDS011;41980;45.550;12.070;2022-11-12T02:39:10;17.35;;;13.55;;
49147;SDS011;41980;45.550;12.070;2022-11-12T02:45:16;16.40;;;12.30;;
49147;SDS011;41980;45.550;12.070;2022-11-12T02:51:22;15.40;;;12.30;;
49147;SDS011;41980;45.550;12.070;2022-11-12T02:57:27;14.02;;;11.90;;
49147;SDS011;41980;45.550;12.070;2022-11-12T03:03:33;14.48;;;12.25;;
49147;SDS011;41980;45.550;12.070;2022-11-12T03:09:38;14.85;;;13.02;;
49147;SDS011;41980;45.550;12.070;2022-11-12T03:15:44;14.38;;;11.20;;
49147;SDS011;41980;45.550;12.070;2022-11-12T03:21:49;11.70;;;9.57;;
49147;SDS011;41980;45.550;12.070;2022-11-12T03:27:56;10.32;;;8.07;;
49147;SDS011;41980;45.550;12.070;2022-11-12T03:34:06;11.73;;;10.10;;
49147;SDS011;41980;45.550;12.070;2022-11-12T03:40:11;10.73;;;7.93;;
49147;SDS011;41980;45.550;12.070;2022-11-12T03:46:16;14.43;;;12.27;;
49147;SDS011;41980;45.550;12.070;2022-11-12T03:52:22;17.65;;;14.75;;
49147;SDS011;41980;45.550;12.070;2022-11-12T03:58:27;20.52;;;17.67;;
49147;SDS011;41980;45.550;12.070;2022-11-12T04:04:32;17.92;;;15.15;;
49147;SDS011;41980;45.550;12.070;2022-11-12T04:10:40;15.85;;;12.35;;
49147;SDS011;41980;45.550;12.070;2022-11-12T04:16:46;13.60;;;11.20;;
49147;SDS011;41980;45.550;12.070;2022-11-12T04:22:55;12.32;;;9.20;;
49147;SDS011;41980;45.550;12.070;2022-11-12T04:29:01;11.38;;;8.70;;
49147;SDS011;41980;45.550;12.070;2022-11-12T04:35:10;18.40;;;15.85;;
49147;SDS011;41980;45.550;12.070;2022-11-12T04:41:17;15.18;;;13.23;;
49147;SDS011;41980;45.550;12.070;2022-11-12T04:47:27;14.68;;;11.30;;
49147;SDS011;41980;45.550;12.070;2022-11-12T04:53:36;15.63;;;11.35;;
49147;SDS011;41980;45.550;12.070;2022-11-12T04:59:41;14.00;;;11.57;;
49147;SDS011;41980;45.550;12.070;2022-11-12T05:05:46;16.83;;;14.32;;
49147;SDS011;41980;45.550;12.070;2022-11-12T05:11:52;19.88;;;13.60;;
49147;SDS011;41980;45.550;12.070;2022-11-12T05:18:00;14.48;;;12.25;;
49147;SDS011;41980;45.550;12.070;2022-11-12T05:24:06;12.93;;;9.40;;
49147;SDS011;41980;45.550;12.070;2022-11-12T05:30:11;9.73;;;7.57;;
49147;SDS011;41980;45.550;12.070;2022-11-12T05:36:37;11.63;;;9.18;;
49147;SDS011;41980;45.550;12.070;2022-11-12T05:42:43;10.82;;;9.30;;
49147;SDS011;41980;45.550;12.070;2022-11-12T05:48:48;12.77;;;9.95;;
49147;SDS011;41980;45.550;12.070;2022-11-12T05:54:54;12.15;;;8.77;;
49147;SDS011;41980;45.550;12.070;2022-11-12T06:00:59;10.68;;;8.38;;
49147;SDS011;41980;45.550;12.070;2022-11-12T06:07:07;9.93;;;7.68;;
49147;SDS011;41980;45.550;12.070;2022-11-12T06:13:13;14.02;;;10.10;;
49147;SDS011;41980;45.550;12.070;2022-11-12T06:19:18;11.05;;;9.20;;
49147;SDS011;41980;45.550;12.070;2022-11-12T06:25:24;10.50;;;8.45;;
49147;SDS011;41980;45.550;12.070;2022-11-12T06:31:29;9.45;;;6.65;;
49147;SDS011;41980;45.550;12.070;2022-11-12T06:37:34;14.07;;;11.75;;
49147;SDS011;41980;45.550;12.070;2022-11-12T06:43:40;13.73;;;10.10;;
49147;SDS011;41980;45.550;12.070;2022-11-12T06:49:46;13.50;;;9.98;;
49147;SDS011;41980;45.550;12.070;2022-11-12T06:55:51;11.10;;;8.98;;
49147;SDS011;41980;45.550;12.070;2022-11-12T07:01:56;12.90;;;9.63;;
49147;SDS011;41980;45.550;12.070;2022-11-12T07:08:01;9.65;;;8.13;;
49147;SDS011;41980;45.550;12.070;2022-11-12T07:14:07;12.60;;;9.68;;
49147;SDS011;41980;45.550;12.070;2022-11-12T07:20:13;12.35;;;10.63;;
49147;SDS011;41980;45.550;12.070;2022-11-12T07:26:19;11.93;;;9.93;;
49147;SDS011;41980;45.550;12.070;2022-11-12T07:32:26;10.57;;;9.13;;
49147;SDS011;41980;45.550;12.070;2022-11-12T07:38:32;13.68;;;9.65;;
49147;SDS011;41980;45.550;12.070;2022-11-12T07:44:39;12.02;;;8.18;;
49147;SDS011;41980;45.550;12.070;2022-11-12T07:50:44;15.10;;;12.02;;
49147;SDS011;41980;45.550;12.070;2022-11-12T07:56:49;17.30;;;13.82;;
49147;SDS011;41980;45.550;12.070;2022-11-12T08:02:57;17.02;;;13.80;;
49147;SDS011;41980;45.550;12.070;2022-11-12T08:09:05;18.23;;;16.10;;
49147;SDS011;41980;45.550;12.070;2022-11-12T08:15:13;23.13;;;17.95;;
49147;SDS011;41980;45.550;12.070;2022-11-12T08:21:20;13.85;;;10.75;;
49147;SDS011;41980;45.550;12.070;2022-11-12T08:27:25;27.08;;;20.27;;
49147;SDS011;41980;45.550;12.070;2022-11-12T08:33:32;22.27;;;16.67;;
49147;SDS011;41980;45.550;12.070;2022-11-12T08:39:38;37.92;;;26.85;;
49147;SDS011;41980;45.550;12.070;2022-11-12T08:45:43;32.88;;;23.20;;
49147;SDS011;41980;45.550;12.070;2022-11-12T08:51:49;20.10;;;14.38;;
49147;SDS011;41980;45.550;12.070;2022-11-12T08:57:55;16.88;;;11.43;;
49147;SDS011;41980;45.550;12.070;2022-11-12T09:04:05;16.98;;;12.48;;
49147;SDS011;41980;45.550;12.070;2022-11-12T09:10:10;19.58;;;14.15;;
49147;SDS011;41980;45.550;12.070;2022-11-12T09:16:16;11.00;;;8.20;;
49147;SDS011;41980;45.550;12.070;2022-11-12T09:22:22;16.95;;;11.43;;
49147;SDS011;41980;45.550;12.070;2022-11-12T09:28:27;11.35;;;9.75;;
49147;SDS011;41980;45.550;12.070;2022-11-12T09:34:32;15.93;;;12.55;;
49147;SDS011;41980;45.550;12.070;2022-11-12T09:53:01;8.02;;;5.72;;
49147;SDS011;41980;45.550;12.070;2022-11-12T09:59:12;12.93;;;11.00;;
49147;SDS011;41980;45.550;12.070;2022-11-12T10:17:52;13.68;;;11.23;;
49147;SDS011;41980;45.550;12.070;2022-11-12T10:24:08;8.27;;;6.43;;
49147;SDS011;41980;45.550;12.070;2022-11-12T10:30:18;7.15;;;5.18;;
49147;SDS011;41980;45.550;12.070;2022-11-12T10:36:29;4.88;;;3.97;;
49147;SDS011;41980;45.550;12.070;2022-11-12T10:42:54;15.35;;;10.80;;
49147;SDS011;41980;45.550;12.070;2022-11-12T10:49:03;11.93;;;8.05;;
49147;SDS011;41980;45.550;12.070;2022-11-12T11:01:21;7.22;;;5.53;;
49147;SDS011;41980;45.550;12.070;2022-11-12T11:07:28;6.50;;;5.05;;
49147;SDS011;41980;45.550;12.070;2022-11-12T11:13:35;7.85;;;4.28;;
49147;SDS011;41980;45.550;12.070;2022-11-12T11:19:40;5.15;;;3.78;;
49147;SDS011;41980;45.550;12.070;2022-11-12T11:25:48;6.13;;;4.13;;
49147;SDS011;41980;45.550;12.070;2022-11-12T11:50:45;21.85;;;17.65;;
49147;SDS011;41980;45.550;12.070;2022-11-12T11:57:06;7.63;;;5.20;;
49147;SDS011;41980;45.550;12.070;2022-11-12T12:21:49;11.37;;;8.07;;
49147;SDS011;41980;45.550;12.070;2022-11-12T12:46:41;9.15;;;7.45;;
49147;SDS011;41980;45.550;12.070;2022-11-12T12:59:06;7.95;;;5.13;;
49147;SDS011;41980;45.550;12.070;2022-11-12T13:17:48;5.45;;;4.20;;
49147;SDS011;41980;45.550;12.070;2022-11-12T13:23:55;6.80;;;5.38;;
49147;SDS011;41980;45.550;12.070;2022-11-12T13:30:07;7.17;;;5.37;;
49147;SDS011;41980;45.550;12.070;2022-11-12T13:36:33;7.28;;;5.00;;
49147;SDS011;41980;45.550;12.070;2022-11-12T13:42:38;7.43;;;5.57;;
49147;SDS011;41980;45.550;12.070;2022-11-12T13:48:50;6.03;;;4.20;;
49147;SDS011;41980;45.550;12.070;2022-11-12T13:55:01;4.65;;;3.65;;
49147;SDS011;41980;45.550;12.070;2022-11-12T14:01:09;4.40;;;3.33;;
49147;SDS011;41980;45.550;12.070;2022-11-12T14:07:28;3.88;;;3.13;;
49147;SDS011;41980;45.550;12.070;2022-11-12T14:13:49;4.53;;;3.13;;
49147;SDS011;41980;45.550;12.070;2022-11-12T14:32:38;6.13;;;4.55;;
49147;SDS011;41980;45.550;12.070;2022-11-12T14:44:54;12.45;;;8.35;;
49147;SDS011;41980;45.550;12.070;2022-11-12T14:51:03;12.15;;;8.60;;
49147;SDS011;41980;45.550;12.070;2022-11-12T14:57:16;12.25;;;8.13;;
49147;SDS011;41980;45.550;12.070;2022-11-12T15:03:30;8.68;;;5.60;;
49147;SDS011;41980;45.550;12.070;2022-11-12T15:09:36;13.38;;;8.95;;
49147;SDS011;41980;45.550;12.070;2022-11-12T15:21:55;25.17;;;16.33;;
49147;SDS011;41980;45.550;12.070;2022-11-12T15:40:28;6.82;;;4.50;;
49147;SDS011;41980;45.550;12.070;2022-11-12T15:46:35;13.88;;;10.02;;
49147;SDS011;41980;45.550;12.070;2022-11-12T15:52:43;15.32;;;13.27;;
49147;SDS011;41980;45.550;12.070;2022-11-12T15:58:49;13.15;;;10.35;;
49147;SDS011;41980;45.550;12.070;2022-11-12T16:04:55;11.88;;;8.38;;
49147;SDS011;41980;45.550;12.070;2022-11-12T16:11:01;8.55;;;6.45;;
49147;SDS011;41980;45.550;12.070;2022-11-12T16:17:28;10.00;;;7.10;;
49147;SDS011;41980;45.550;12.070;2022-11-12T16:23:33;10.05;;;7.00;;
49147;SDS011;41980;45.550;12.070;2022-11-12T16:29:49;9.30;;;7.32;;
49147;SDS011;41980;45.550;12.070;2022-11-12T16:36:48;9.57;;;7.78;;
49147;SDS011;41980;45.550;12.070;2022-11-12T16:50:42;12.77;;;10.23;;
49147;SDS011;41980;45.550;12.070;2022-11-12T17:04:43;48.70;;;28.73;;
49147;SDS011;41980;45.550;12.070;2022-11-12T17:11:27;65.60;;;37.05;;
49147;SDS011;41980;45.550;12.070;2022-11-12T17:17:32;47.90;;;27.17;;
49147;SDS011;41980;45.550;12.070;2022-11-12T17:23:50;33.58;;;19.10;;
49147;SDS011;41980;45.550;12.070;2022-11-12T17:30:21;29.60;;;16.50;;
49147;SDS011;41980;45.550;12.070;2022-11-12T17:36:26;20.25;;;12.70;;
49147;SDS011;41980;45.550;12.070;2022-11-12T17:42:32;24.65;;;16.52;;
49147;SDS011;41980;45.550;12.070;2022-11-12T17:48:37;18.77;;;11.93;;
49147;SDS011;41980;45.550;12.070;2022-11-12T17:54:43;23.15;;;16.65;;
49147;SDS011;41980;45.550;12.070;2022-11-12T18:00:51;24.05;;;17.88;;
49147;SDS011;41980;45.550;12.070;2022-11-12T18:06:56;20.42;;;14.32;;
49147;SDS011;41980;45.550;12.070;2022-11-12T18:13:03;17.92;;;14.15;;
49147;SDS011;41980;45.550;12.070;2022-11-12T18:19:08;15.90;;;12.32;;
49147;SDS011;41980;45.550;12.070;2022-11-12T18:25:19;20.90;;;16.50;;
49147;SDS011;41980;45.550;12.070;2022-11-12T18:31:32;14.07;;;12.13;;
49147;SDS011;41980;45.550;12.070;2022-11-12T18:37:38;15.82;;;11.95;;
49147;SDS011;41980;45.550;12.070;2022-11-12T18:43:43;24.20;;;18.83;;
49147;SDS011;41980;45.550;12.070;2022-11-12T18:50:00;16.33;;;12.35;;
49147;SDS011;41980;45.550;12.070;2022-11-12T18:56:06;14.77;;;12.20;;
49147;SDS011;41980;45.550;12.070;2022-11-12T19:02:16;14.38;;;11.30;;
49147;SDS011;41980;45.550;12.070;2022-11-12T19:08:21;13.18;;;11.13;;
49147;SDS011;41980;45.550;12.070;2022-11-12T19:14:27;12.60;;;10.00;;
49147;SDS011;41980;45.550;12.070;2022-11-12T19:20:35;14.82;;;11.63;;
49147;SDS011;41980;45.550;12.070;2022-11-12T19:26:40;17.13;;;12.75;;
49147;SDS011;41980;45.550;12.070;2022-11-12T19:32:46;18.92;;;12.73;;
49147;SDS011;41980;45.550;12.070;2022-11-12T19:38:53;25.30;;;20.08;;
49147;SDS011;41980;45.550;12.070;2022-11-12T19:45:01;23.23;;;19.45;;
49147;SDS011;41980;45.550;12.070;2022-11-12T19:51:08;30.88;;;25.15;;
49147;SDS011;41980;45.550;12.070;2022-11-12T19:57:15;25.60;;;21.98;;
49147;SDS011;41980;45.550;12.070;2022-11-12T20:03:23;24.98;;;18.42;;
49147;SDS011;41980;45.550;12.070;2022-11-12T20:09:30;27.30;;;22.02;;
49147;SDS011;41980;45.550;12.070;2022-11-12T20:15:36;30.60;;;23.83;;
49147;SDS011;41980;45.550;12.070;2022-11-12T20:21:42;22.67;;;18.30;;
49147;SDS011;41980;45.550;12.070;2022-11-12T20:27:49;19.67;;;14.70;;
49147;SDS011;41980;45.550;12.070;2022-11-12T20:33:55;31.95;;;23.25;;
49147;SDS011;41980;45.550;12.070;2022-11-12T20:40:00;17.50;;;13.30;;
49147;SDS011;41980;45.550;12.070;2022-11-12T20:46:05;12.60;;;9.68;;
49147;SDS011;41980;45.550;12.070;2022-11-12T20:52:11;12.45;;;9.95;;
49147;SDS011;41980;45.550;12.070;2022-11-12T20:58:17;12.70;;;9.20;;
49147;SDS011;41980;45.550;12.070;2022-11-12T21:04:22;10.85;;;8.32;;
49147;SDS011;41980;45.550;12.070;2022-11-12T21:10:29;11.07;;;8.60;;
49147;SDS011;41980;45.550;12.070;2022-11-12T21:16:35;10.63;;;8.68;;
49147;SDS011;41980;45.550;12.070;2022-11-12T21:22:41;15.85;;;13.48;;
49147;SDS011;41980;45.550;12.070;2022-11-12T21:28:50;20.27;;;16.13;;
49147;SDS011;41980;45.550;12.070;2022-11-12T21:34:57;17.23;;;13.77;;
49147;SDS011;41980;45.550;12.070;2022-11-12T21:41:15;13.77;;;10.05;;
49147;SDS011;41980;45.550;12.070;2022-11-12T21:47:22;14.05;;;11.50;;
49147;SDS011;41980;45.550;12.070;2022-11-12T21:53:28;13.60;;;11.02;;
49147;SDS011;41980;45.550;12.070;2022-11-12T21:59:36;14.00;;;11.13;;
49147;SDS011;41980;45.550;12.070;2022-11-12T22:05:44;14.68;;;10.90;;
49147;SDS011;41980;45.550;12.070;2022-11-12T22:11:49;13.90;;;9.50;;
49147;SDS011;41980;45.550;12.070;2022-11-12T22:17:56;11.80;;;8.85;;
49147;SDS011;41980;45.550;12.070;2022-11-12T22:24:04;11.98;;;9.00;;
49147;SDS011;41980;45.550;12.070;2022-11-12T22:30:10;10.45;;;7.47;;
49147;SDS011;41980;45.550;12.070;2022-11-12T22:36:17;9.15;;;6.70;;
49147;SDS011;41980;45.550;12.070;2022-11-12T22:42:25;9.48;;;7.28;;
49147;SDS011;41980;45.550;12.070;2022-11-12T22:48:30;8.27;;;6.60;;
49147;SDS011;41980;45.550;12.070;2022-11-12T22:54:37;8.05;;;6.28;;
49147;SDS011;41980;45.550;12.070;2022-11-12T23:00:43;10.48;;;6.43;;
49147;SDS011;41980;45.550;12.070;2022-11-12T23:06:52;7.63;;;5.47;;
49147;SDS011;41980;45.550;12.070;2022-11-12T23:12:57;7.20;;;4.90;;
49147;SDS011;41980;45.550;12.070;2022-11-12T23:19:02;8.20;;;5.60;;
49147;SDS011;41980;45.550;12.070;2022-11-12T23:25:08;6.70;;;5.25;;
49147;SDS011;41980;45.550;12.070;2022-11-12T23:31:14;8.95;;;5.72;;
49147;SDS011;41980;45.550;12.070;2022-11-12T23:37:21;7.40;;;5.35;;
49147;SDS011;41980;45.550;12.070;2022-11-12T23:43:27;6.75;;;4.60;;
49147;SDS011;41980;45.550;12.070;2022-11-12T23:49:36;7.95;;;4.40;;
49147;SDS011;41980;45.550;12.070;2022-11-12T23:55:44;7.05;;;5.05;;
